sensor_id;sensor_type;location;lat;lon;timestamp;P1;durP1;ratioP1;P2;durP2;ratioP2
4903;SDS011;2467;48.142;11.616;2022-10-31T00:00:10;16.67;;;10.55;;
4903;SDS011;2467;48.142;11.616;2022-10-31T00:00:42;15.70;;;11.52;;
4903;SDS011;2467;48.142;11.616;2022-10-31T00:01:16;13.60;;;11.30;;
4903;SDS011;2467;48.142;11.616;2022-10-31T00:01:48;13.70;;;10.80;;
4903;SDS011;2467;48.142;11.616;2022-10-31T00:02:21;12.02;;;10.68;;
4903;SDS011;2467;48.142;11.616;2022-10-31T00:02:53;13.27;;;10.82;;
4903;SDS011;2467;48.142;11.616;2022-10-31T00:03:25;12.80;;;10.45;;
4903;SDS011;2467;48.142;11.616;2022-10-31T00:03:58;14.57;;;11.15;;
4903;SDS011;2467;48.142;11.616;2022-10-31T00:04:30;15.80;;;10.73;;
4903;SDS011;2467;48.142;11.616;2022-10-31T00:05:02;15.85;;;10.63;;
4903;SDS011;2467;48.142;11.616;2022-10-31T00:05:34;18.20;;;11.30;;
4903;SDS011;2467;48.142;11.616;2022-10-31T00:06:06;13.90;;;10.35;;
4903;SDS011;2467;48.142;11.616;2022-10-31T00:06:38;18.88;;;11.82;;
4903;SDS011;2467;48.142;11.616;2022-10-31T00:07:10;13.20;;;10.35;;
4903;SDS011;2467;48.142;11.616;2022-10-31T00:07:43;13.57;;;11.80;;
4903;SDS011;2467;48.142;11.616;2022-10-31T00:08:15;18.40;;;12.93;;
4903;SDS011;2467;48.142;11.616;2022-10-31T00:08:51;12.95;;;10.43;;
4903;SDS011;2467;48.142;11.616;2022-10-31T00:09:25;17.05;;;11.82;;
4903;SDS011;2467;48.142;11.616;2022-10-31T00:09:57;12.35;;;9.95;;
4903;SDS011;2467;48.142;11.616;2022-10-31T00:10:29;19.90;;;10.10;;
4903;SDS011;2467;48.142;11.616;2022-10-31T00:11:00;12.18;;;10.43;;
4903;SDS011;2467;48.142;11.616;2022-10-31T00:11:33;11.30;;;9.60;;
4903;SDS011;2467;48.142;11.616;2022-10-31T00:12:05;14.85;;;10.85;;
4903;SDS011;2467;48.142;11.616;2022-10-31T00:12:37;13.10;;;10.65;;
4903;SDS011;2467;48.142;11.616;2022-10-31T00:13:10;13.85;;;10.48;;
4903;SDS011;2467;48.142;11.616;2022-10-31T00:13:43;14.38;;;10.45;;
4903;SDS011;2467;48.142;11.616;2022-10-31T00:14:17;10.35;;;8.70;;
4903;SDS011;2467;48.142;11.616;2022-10-31T00:14:50;14.05;;;11.65;;
4903;SDS011;2467;48.142;11.616;2022-10-31T00:15:22;14.82;;;10.68;;
4903;SDS011;2467;48.142;11.616;2022-10-31T00:15:54;13.18;;;11.27;;
4903;SDS011;2467;48.142;11.616;2022-10-31T00:16:27;13.48;;;9.88;;
4903;SDS011;2467;48.142;11.616;2022-10-31T00:17:00;12.43;;;10.65;;
4903;SDS011;2467;48.142;11.616;2022-10-31T00:17:34;15.10;;;9.63;;
4903;SDS011;2467;48.142;11.616;2022-10-31T00:18:08;13.40;;;10.23;;
4903;SDS011;2467;48.142;11.616;2022-10-31T00:18:41;13.85;;;9.35;;
4903;SDS011;2467;48.142;11.616;2022-10-31T00:19:14;18.17;;;11.02;;
4903;SDS011;2467;48.142;11.616;2022-10-31T00:19:47;23.75;;;11.38;;
4903;SDS011;2467;48.142;11.616;2022-10-31T00:20:19;10.50;;;9.38;;
4903;SDS011;2467;48.142;11.616;2022-10-31T00:20:57;12.88;;;10.35;;
4903;SDS011;2467;48.142;11.616;2022-10-31T00:21:31;13.43;;;9.63;;
4903;SDS011;2467;48.142;11.616;2022-10-31T00:22:04;11.40;;;9.30;;
4903;SDS011;2467;48.142;11.616;2022-10-31T00:22:36;10.57;;;9.05;;
4903;SDS011;2467;48.142;11.616;2022-10-31T00:23:09;15.13;;;9.57;;
4903;SDS011;2467;48.142;11.616;2022-10-31T00:23:42;13.00;;;10.32;;
4903;SDS011;2467;48.142;11.616;2022-10-31T00:24:14;14.95;;;11.15;;
4903;SDS011;2467;48.142;11.616;2022-10-31T00:24:46;11.93;;;10.10;;
4903;SDS011;2467;48.142;11.616;2022-10-31T00:25:18;15.00;;;13.02;;
4903;SDS011;2467;48.142;11.616;2022-10-31T00:25:51;21.65;;;17.17;;
4903;SDS011;2467;48.142;11.616;2022-10-31T00:26:23;24.50;;;15.65;;
4903;SDS011;2467;48.142;11.616;2022-10-31T00:26:56;16.52;;;13.07;;
4903;SDS011;2467;48.142;11.616;2022-10-31T00:27:28;14.10;;;11.45;;
4903;SDS011;2467;48.142;11.616;2022-10-31T00:28:00;12.98;;;11.10;;
4903;SDS011;2467;48.142;11.616;2022-10-31T00:28:33;20.13;;;11.85;;
4903;SDS011;2467;48.142;11.616;2022-10-31T00:29:05;12.05;;;9.90;;
4903;SDS011;2467;48.142;11.616;2022-10-31T00:29:39;11.65;;;10.43;;
4903;SDS011;2467;48.142;11.616;2022-10-31T00:30:12;13.35;;;9.50;;
4903;SDS011;2467;48.142;11.616;2022-10-31T00:30:43;12.30;;;10.50;;
4903;SDS011;2467;48.142;11.616;2022-10-31T00:31:16;12.45;;;8.52;;
4903;SDS011;2467;48.142;11.616;2022-10-31T00:31:48;11.73;;;9.27;;
4903;SDS011;2467;48.142;11.616;2022-10-31T00:32:20;14.60;;;9.52;;
4903;SDS011;2467;48.142;11.616;2022-10-31T00:32:53;14.43;;;10.23;;
4903;SDS011;2467;48.142;11.616;2022-10-31T00:33:25;11.93;;;9.80;;
4903;SDS011;2467;48.142;11.616;2022-10-31T00:33:56;15.02;;;9.85;;
4903;SDS011;2467;48.142;11.616;2022-10-31T00:34:30;12.38;;;8.55;;
4903;SDS011;2467;48.142;11.616;2022-10-31T00:35:02;12.07;;;9.25;;
4903;SDS011;2467;48.142;11.616;2022-10-31T00:35:34;14.65;;;9.05;;
4903;SDS011;2467;48.142;11.616;2022-10-31T00:36:07;12.95;;;7.95;;
4903;SDS011;2467;48.142;11.616;2022-10-31T00:36:42;9.02;;;7.82;;
4903;SDS011;2467;48.142;11.616;2022-10-31T00:37:14;11.60;;;8.70;;
4903;SDS011;2467;48.142;11.616;2022-10-31T00:37:47;12.75;;;9.85;;
4903;SDS011;2467;48.142;11.616;2022-10-31T00:38:19;11.27;;;7.85;;
4903;SDS011;2467;48.142;11.616;2022-10-31T00:38:51;9.57;;;7.22;;
4903;SDS011;2467;48.142;11.616;2022-10-31T00:39:24;12.18;;;8.95;;
4903;SDS011;2467;48.142;11.616;2022-10-31T00:39:56;8.52;;;7.20;;
4903;SDS011;2467;48.142;11.616;2022-10-31T00:40:28;8.27;;;7.35;;
4903;SDS011;2467;48.142;11.616;2022-10-31T00:41:01;11.88;;;8.85;;
4903;SDS011;2467;48.142;11.616;2022-10-31T00:41:32;12.18;;;8.98;;
4903;SDS011;2467;48.142;11.616;2022-10-31T00:42:04;11.82;;;8.20;;
4903;SDS011;2467;48.142;11.616;2022-10-31T00:42:38;9.73;;;7.53;;
4903;SDS011;2467;48.142;11.616;2022-10-31T00:43:11;11.90;;;8.60;;
4903;SDS011;2467;48.142;11.616;2022-10-31T00:43:43;13.13;;;9.70;;
4903;SDS011;2467;48.142;11.616;2022-10-31T00:44:16;11.30;;;9.52;;
4903;SDS011;2467;48.142;11.616;2022-10-31T00:44:50;11.20;;;8.20;;
4903;SDS011;2467;48.142;11.616;2022-10-31T00:45:22;14.52;;;8.25;;
4903;SDS011;2467;48.142;11.616;2022-10-31T00:45:54;10.55;;;9.32;;
4903;SDS011;2467;48.142;11.616;2022-10-31T00:46:26;13.50;;;7.63;;
4903;SDS011;2467;48.142;11.616;2022-10-31T00:46:59;14.93;;;7.40;;
4903;SDS011;2467;48.142;11.616;2022-10-31T00:47:31;13.77;;;8.25;;
4903;SDS011;2467;48.142;11.616;2022-10-31T00:48:03;13.73;;;8.07;;
4903;SDS011;2467;48.142;11.616;2022-10-31T00:48:36;9.30;;;7.68;;
4903;SDS011;2467;48.142;11.616;2022-10-31T00:49:08;11.90;;;7.85;;
4903;SDS011;2467;48.142;11.616;2022-10-31T00:49:40;9.98;;;7.90;;
4903;SDS011;2467;48.142;11.616;2022-10-31T00:50:12;12.82;;;8.32;;
4903;SDS011;2467;48.142;11.616;2022-10-31T00:50:44;10.88;;;8.65;;
4903;SDS011;2467;48.142;11.616;2022-10-31T00:51:16;13.80;;;7.38;;
4903;SDS011;2467;48.142;11.616;2022-10-31T00:51:49;9.30;;;8.10;;
4903;SDS011;2467;48.142;11.616;2022-10-31T00:52:21;10.35;;;7.40;;
4903;SDS011;2467;48.142;11.616;2022-10-31T00:52:53;9.68;;;7.80;;
4903;SDS011;2467;48.142;11.616;2022-10-31T00:53:25;15.93;;;8.63;;
4903;SDS011;2467;48.142;11.616;2022-10-31T00:53:57;8.85;;;7.95;;
4903;SDS011;2467;48.142;11.616;2022-10-31T00:54:29;9.57;;;7.07;;
4903;SDS011;2467;48.142;11.616;2022-10-31T00:55:02;11.18;;;8.40;;
4903;SDS011;2467;48.142;11.616;2022-10-31T00:55:34;8.23;;;7.38;;
4903;SDS011;2467;48.142;11.616;2022-10-31T00:56:06;12.18;;;6.97;;
4903;SDS011;2467;48.142;11.616;2022-10-31T00:56:39;9.73;;;6.70;;
4903;SDS011;2467;48.142;11.616;2022-10-31T00:57:11;12.52;;;8.45;;
4903;SDS011;2467;48.142;11.616;2022-10-31T00:57:45;9.27;;;7.07;;
4903;SDS011;2467;48.142;11.616;2022-10-31T00:58:18;9.18;;;7.88;;
4903;SDS011;2467;48.142;11.616;2022-10-31T00:58:50;8.10;;;7.35;;
4903;SDS011;2467;48.142;11.616;2022-10-31T00:59:22;9.27;;;7.22;;
4903;SDS011;2467;48.142;11.616;2022-10-31T00:59:56;16.70;;;8.30;;
4903;SDS011;2467;48.142;11.616;2022-10-31T01:00:28;11.05;;;7.07;;
4903;SDS011;2467;48.142;11.616;2022-10-31T01:00:59;7.55;;;6.80;;
4903;SDS011;2467;48.142;11.616;2022-10-31T01:01:32;9.77;;;8.38;;
4903;SDS011;2467;48.142;11.616;2022-10-31T01:02:04;9.40;;;6.68;;
4903;SDS011;2467;48.142;11.616;2022-10-31T01:02:36;11.63;;;8.45;;
4903;SDS011;2467;48.142;11.616;2022-10-31T01:03:09;9.27;;;6.63;;
4903;SDS011;2467;48.142;11.616;2022-10-31T01:03:41;16.08;;;8.52;;
4903;SDS011;2467;48.142;11.616;2022-10-31T01:04:13;11.45;;;7.53;;
4903;SDS011;2467;48.142;11.616;2022-10-31T01:04:46;12.82;;;7.75;;
4903;SDS011;2467;48.142;11.616;2022-10-31T01:05:18;9.90;;;7.55;;
4903;SDS011;2467;48.142;11.616;2022-10-31T01:05:59;11.57;;;7.68;;
4903;SDS011;2467;48.142;11.616;2022-10-31T01:06:34;10.20;;;7.63;;
4903;SDS011;2467;48.142;11.616;2022-10-31T01:07:05;9.38;;;7.13;;
4903;SDS011;2467;48.142;11.616;2022-10-31T01:07:38;11.20;;;9.35;;
4903;SDS011;2467;48.142;11.616;2022-10-31T01:08:12;8.23;;;7.38;;
4903;SDS011;2467;48.142;11.616;2022-10-31T01:08:43;12.80;;;8.52;;
4903;SDS011;2467;48.142;11.616;2022-10-31T01:09:18;11.88;;;8.85;;
4903;SDS011;2467;48.142;11.616;2022-10-31T01:09:50;12.82;;;8.23;;
4903;SDS011;2467;48.142;11.616;2022-10-31T01:10:22;11.70;;;7.63;;
4903;SDS011;2467;48.142;11.616;2022-10-31T01:11:02;10.15;;;7.78;;
4903;SDS011;2467;48.142;11.616;2022-10-31T01:11:36;8.52;;;6.85;;
4903;SDS011;2467;48.142;11.616;2022-10-31T01:12:08;10.57;;;7.22;;
4903;SDS011;2467;48.142;11.616;2022-10-31T01:12:41;9.10;;;7.88;;
4903;SDS011;2467;48.142;11.616;2022-10-31T01:13:14;17.10;;;9.15;;
4903;SDS011;2467;48.142;11.616;2022-10-31T01:13:46;12.85;;;7.55;;
4903;SDS011;2467;48.142;11.616;2022-10-31T01:14:21;10.77;;;7.25;;
4903;SDS011;2467;48.142;11.616;2022-10-31T01:14:53;9.80;;;6.85;;
4903;SDS011;2467;48.142;11.616;2022-10-31T01:15:26;11.32;;;7.85;;
4903;SDS011;2467;48.142;11.616;2022-10-31T01:15:59;13.68;;;7.60;;
4903;SDS011;2467;48.142;11.616;2022-10-31T01:16:31;10.15;;;7.47;;
4903;SDS011;2467;48.142;11.616;2022-10-31T01:17:03;10.30;;;7.10;;
4903;SDS011;2467;48.142;11.616;2022-10-31T01:17:36;14.45;;;8.25;;
4903;SDS011;2467;48.142;11.616;2022-10-31T01:18:08;10.88;;;7.53;;
4903;SDS011;2467;48.142;11.616;2022-10-31T01:18:40;9.52;;;6.88;;
4903;SDS011;2467;48.142;11.616;2022-10-31T01:19:12;12.15;;;8.25;;
4903;SDS011;2467;48.142;11.616;2022-10-31T01:19:44;15.23;;;8.38;;
4903;SDS011;2467;48.142;11.616;2022-10-31T01:20:16;10.75;;;6.78;;
4903;SDS011;2467;48.142;11.616;2022-10-31T01:20:56;12.25;;;8.18;;
4903;SDS011;2467;48.142;11.616;2022-10-31T01:21:30;7.80;;;6.82;;
4903;SDS011;2467;48.142;11.616;2022-10-31T01:22:02;15.43;;;7.65;;
4903;SDS011;2467;48.142;11.616;2022-10-31T01:22:35;9.38;;;6.45;;
4903;SDS011;2467;48.142;11.616;2022-10-31T01:23:06;9.75;;;7.88;;
4903;SDS011;2467;48.142;11.616;2022-10-31T01:23:38;10.32;;;7.03;;
4903;SDS011;2467;48.142;11.616;2022-10-31T01:24:12;15.05;;;7.50;;
4903;SDS011;2467;48.142;11.616;2022-10-31T01:24:43;11.75;;;7.35;;
4903;SDS011;2467;48.142;11.616;2022-10-31T01:25:15;10.13;;;6.63;;
4903;SDS011;2467;48.142;11.616;2022-10-31T01:25:48;10.13;;;6.13;;
4903;SDS011;2467;48.142;11.616;2022-10-31T01:26:21;11.02;;;6.60;;
4903;SDS011;2467;48.142;11.616;2022-10-31T01:26:53;10.48;;;6.32;;
4903;SDS011;2467;48.142;11.616;2022-10-31T01:27:26;7.18;;;6.45;;
4903;SDS011;2467;48.142;11.616;2022-10-31T01:27:58;11.52;;;5.80;;
4903;SDS011;2467;48.142;11.616;2022-10-31T01:28:31;12.02;;;7.18;;
4903;SDS011;2467;48.142;11.616;2022-10-31T01:29:04;9.45;;;6.82;;
4903;SDS011;2467;48.142;11.616;2022-10-31T01:29:39;13.45;;;6.68;;
4903;SDS011;2467;48.142;11.616;2022-10-31T01:30:11;11.40;;;7.05;;
4903;SDS011;2467;48.142;11.616;2022-10-31T01:30:45;10.07;;;7.60;;
4903;SDS011;2467;48.142;11.616;2022-10-31T01:31:17;12.38;;;8.10;;
4903;SDS011;2467;48.142;11.616;2022-10-31T01:31:51;11.23;;;7.75;;
4903;SDS011;2467;48.142;11.616;2022-10-31T01:32:23;9.88;;;6.68;;
4903;SDS011;2467;48.142;11.616;2022-10-31T01:32:55;7.93;;;6.00;;
4903;SDS011;2467;48.142;11.616;2022-10-31T01:33:29;10.30;;;7.25;;
4903;SDS011;2467;48.142;11.616;2022-10-31T01:34:02;14.80;;;6.63;;
4903;SDS011;2467;48.142;11.616;2022-10-31T01:34:34;9.30;;;6.40;;
4903;SDS011;2467;48.142;11.616;2022-10-31T01:35:07;10.20;;;7.15;;
4903;SDS011;2467;48.142;11.616;2022-10-31T01:35:39;10.88;;;6.35;;
4903;SDS011;2467;48.142;11.616;2022-10-31T01:36:12;9.88;;;6.28;;
4903;SDS011;2467;48.142;11.616;2022-10-31T01:36:45;10.48;;;7.05;;
4903;SDS011;2467;48.142;11.616;2022-10-31T01:37:22;12.52;;;7.30;;
4903;SDS011;2467;48.142;11.616;2022-10-31T01:37:54;11.30;;;6.47;;
4903;SDS011;2467;48.142;11.616;2022-10-31T01:38:26;7.50;;;6.80;;
4903;SDS011;2467;48.142;11.616;2022-10-31T01:39:00;9.77;;;6.15;;
4903;SDS011;2467;48.142;11.616;2022-10-31T01:39:33;13.32;;;6.22;;
4903;SDS011;2467;48.142;11.616;2022-10-31T01:40:06;13.07;;;6.55;;
4903;SDS011;2467;48.142;11.616;2022-10-31T01:40:39;10.85;;;9.05;;
4903;SDS011;2467;48.142;11.616;2022-10-31T01:41:12;9.18;;;6.82;;
4903;SDS011;2467;48.142;11.616;2022-10-31T01:41:45;8.30;;;6.60;;
4903;SDS011;2467;48.142;11.616;2022-10-31T01:42:21;11.48;;;6.20;;
4903;SDS011;2467;48.142;11.616;2022-10-31T01:42:54;9.40;;;7.43;;
4903;SDS011;2467;48.142;11.616;2022-10-31T01:43:40;12.18;;;6.82;;
4903;SDS011;2467;48.142;11.616;2022-10-31T01:45:26;10.25;;;6.68;;
4903;SDS011;2467;48.142;11.616;2022-10-31T01:46:00;7.32;;;6.30;;
4903;SDS011;2467;48.142;11.616;2022-10-31T01:46:33;8.13;;;5.55;;
4903;SDS011;2467;48.142;11.616;2022-10-31T01:47:11;9.30;;;5.70;;
4903;SDS011;2467;48.142;11.616;2022-10-31T01:47:45;10.40;;;5.80;;
4903;SDS011;2467;48.142;11.616;2022-10-31T01:48:20;12.18;;;6.05;;
4903;SDS011;2467;48.142;11.616;2022-10-31T01:48:59;10.57;;;7.75;;
4903;SDS011;2467;48.142;11.616;2022-10-31T01:49:34;11.63;;;7.40;;
4903;SDS011;2467;48.142;11.616;2022-10-31T01:50:10;11.20;;;6.68;;
4903;SDS011;2467;48.142;11.616;2022-10-31T01:50:50;11.73;;;6.32;;
4903;SDS011;2467;48.142;11.616;2022-10-31T01:51:26;8.00;;;6.60;;
4903;SDS011;2467;48.142;11.616;2022-10-31T01:52:04;9.85;;;6.35;;
4903;SDS011;2467;48.142;11.616;2022-10-31T01:52:39;8.60;;;6.15;;
4903;SDS011;2467;48.142;11.616;2022-10-31T01:53:14;7.85;;;6.70;;
4903;SDS011;2467;48.142;11.616;2022-10-31T01:53:54;10.15;;;6.72;;
4903;SDS011;2467;48.142;11.616;2022-10-31T01:54:29;13.18;;;6.90;;
4903;SDS011;2467;48.142;11.616;2022-10-31T01:55:05;11.52;;;6.32;;
4903;SDS011;2467;48.142;11.616;2022-10-31T01:55:41;6.97;;;5.90;;
4903;SDS011;2467;48.142;11.616;2022-10-31T01:56:16;12.63;;;6.07;;
4903;SDS011;2467;48.142;11.616;2022-10-31T01:56:50;10.55;;;6.18;;
4903;SDS011;2467;48.142;11.616;2022-10-31T01:57:26;6.43;;;5.22;;
4903;SDS011;2467;48.142;11.616;2022-10-31T01:58:02;9.35;;;6.85;;
4903;SDS011;2467;48.142;11.616;2022-10-31T01:58:38;12.80;;;6.85;;
4903;SDS011;2467;48.142;11.616;2022-10-31T01:59:12;5.97;;;5.32;;
4903;SDS011;2467;48.142;11.616;2022-10-31T01:59:47;18.25;;;6.57;;
4903;SDS011;2467;48.142;11.616;2022-10-31T02:00:23;9.40;;;6.30;;
4903;SDS011;2467;48.142;11.616;2022-10-31T02:00:57;6.93;;;5.78;;
4903;SDS011;2467;48.142;11.616;2022-10-31T02:01:39;12.13;;;6.70;;
4903;SDS011;2467;48.142;11.616;2022-10-31T02:02:11;7.28;;;6.28;;
4903;SDS011;2467;48.142;11.616;2022-10-31T02:02:47;7.15;;;6.20;;
4903;SDS011;2467;48.142;11.616;2022-10-31T02:03:21;13.80;;;7.45;;
4903;SDS011;2467;48.142;11.616;2022-10-31T02:03:55;12.95;;;6.78;;
4903;SDS011;2467;48.142;11.616;2022-10-31T02:04:27;8.85;;;6.28;;
4903;SDS011;2467;48.142;11.616;2022-10-31T02:05:01;12.10;;;6.18;;
4903;SDS011;2467;48.142;11.616;2022-10-31T02:05:36;10.57;;;6.18;;
4903;SDS011;2467;48.142;11.616;2022-10-31T02:06:10;10.13;;;6.80;;
4903;SDS011;2467;48.142;11.616;2022-10-31T02:06:51;15.38;;;6.80;;
4903;SDS011;2467;48.142;11.616;2022-10-31T02:07:30;14.38;;;6.75;;
4903;SDS011;2467;48.142;11.616;2022-10-31T02:08:05;8.52;;;6.20;;
4903;SDS011;2467;48.142;11.616;2022-10-31T02:08:41;8.13;;;6.97;;
4903;SDS011;2467;48.142;11.616;2022-10-31T02:09:15;9.90;;;6.90;;
4903;SDS011;2467;48.142;11.616;2022-10-31T02:09:48;14.77;;;6.45;;
4903;SDS011;2467;48.142;11.616;2022-10-31T02:10:21;9.50;;;7.35;;
4903;SDS011;2467;48.142;11.616;2022-10-31T02:10:54;11.82;;;7.55;;
4903;SDS011;2467;48.142;11.616;2022-10-31T02:11:28;12.05;;;7.65;;
4903;SDS011;2467;48.142;11.616;2022-10-31T02:12:00;11.45;;;7.80;;
4903;SDS011;2467;48.142;11.616;2022-10-31T02:12:33;8.07;;;6.10;;
4903;SDS011;2467;48.142;11.616;2022-10-31T02:13:08;10.85;;;6.40;;
4903;SDS011;2467;48.142;11.616;2022-10-31T02:13:41;8.98;;;6.28;;
4903;SDS011;2467;48.142;11.616;2022-10-31T02:14:14;13.13;;;7.40;;
4903;SDS011;2467;48.142;11.616;2022-10-31T02:14:46;7.95;;;6.30;;
4903;SDS011;2467;48.142;11.616;2022-10-31T02:15:18;10.05;;;6.70;;
4903;SDS011;2467;48.142;11.616;2022-10-31T02:15:52;8.18;;;6.45;;
4903;SDS011;2467;48.142;11.616;2022-10-31T02:16:25;9.18;;;5.72;;
4903;SDS011;2467;48.142;11.616;2022-10-31T02:16:59;11.57;;;6.68;;
4903;SDS011;2467;48.142;11.616;2022-10-31T02:17:31;8.90;;;6.45;;
4903;SDS011;2467;48.142;11.616;2022-10-31T02:18:05;9.43;;;6.35;;
4903;SDS011;2467;48.142;11.616;2022-10-31T02:18:37;9.15;;;5.95;;
4903;SDS011;2467;48.142;11.616;2022-10-31T02:19:11;9.70;;;6.88;;
4903;SDS011;2467;48.142;11.616;2022-10-31T02:19:51;9.50;;;6.45;;
4903;SDS011;2467;48.142;11.616;2022-10-31T02:20:29;10.70;;;7.00;;
4903;SDS011;2467;48.142;11.616;2022-10-31T02:21:07;8.48;;;6.70;;
4903;SDS011;2467;48.142;11.616;2022-10-31T02:21:47;11.80;;;7.60;;
4903;SDS011;2467;48.142;11.616;2022-10-31T02:22:26;9.45;;;6.63;;
4903;SDS011;2467;48.142;11.616;2022-10-31T02:23:13;9.57;;;5.43;;
4903;SDS011;2467;48.142;11.616;2022-10-31T02:24:16;9.45;;;6.50;;
4903;SDS011;2467;48.142;11.616;2022-10-31T02:25:19;10.40;;;5.82;;
4903;SDS011;2467;48.142;11.616;2022-10-31T02:26:13;8.93;;;6.25;;
4903;SDS011;2467;48.142;11.616;2022-10-31T02:27:07;11.32;;;6.15;;
4903;SDS011;2467;48.142;11.616;2022-10-31T02:27:54;11.82;;;7.53;;
4903;SDS011;2467;48.142;11.616;2022-10-31T02:28:50;11.90;;;7.60;;
4903;SDS011;2467;48.142;11.616;2022-10-31T02:30:00;7.63;;;5.60;;
4903;SDS011;2467;48.142;11.616;2022-10-31T02:31:33;10.63;;;6.47;;
4903;SDS011;2467;48.142;11.616;2022-10-31T02:32:13;12.55;;;5.53;;
4903;SDS011;2467;48.142;11.616;2022-10-31T02:32:51;13.48;;;5.85;;
4903;SDS011;2467;48.142;11.616;2022-10-31T02:33:35;9.38;;;6.38;;
4903;SDS011;2467;48.142;11.616;2022-10-31T02:34:13;8.40;;;5.85;;
4903;SDS011;2467;48.142;11.616;2022-10-31T02:34:51;8.05;;;6.28;;
4903;SDS011;2467;48.142;11.616;2022-10-31T02:35:34;6.82;;;5.90;;
4903;SDS011;2467;48.142;11.616;2022-10-31T02:36:16;12.00;;;6.93;;
4903;SDS011;2467;48.142;11.616;2022-10-31T02:36:56;7.75;;;6.20;;
4903;SDS011;2467;48.142;11.616;2022-10-31T02:37:35;11.65;;;7.18;;
4903;SDS011;2467;48.142;11.616;2022-10-31T02:38:23;14.35;;;7.78;;
4903;SDS011;2467;48.142;11.616;2022-10-31T02:39:02;9.38;;;6.55;;
4903;SDS011;2467;48.142;11.616;2022-10-31T02:39:43;7.50;;;5.95;;
4903;SDS011;2467;48.142;11.616;2022-10-31T02:40:23;10.05;;;5.82;;
4903;SDS011;2467;48.142;11.616;2022-10-31T02:41:01;9.20;;;8.18;;
4903;SDS011;2467;48.142;11.616;2022-10-31T02:41:44;9.52;;;6.13;;
4903;SDS011;2467;48.142;11.616;2022-10-31T02:42:23;11.90;;;6.10;;
4903;SDS011;2467;48.142;11.616;2022-10-31T02:43:03;9.20;;;5.72;;
4903;SDS011;2467;48.142;11.616;2022-10-31T02:43:43;6.45;;;5.80;;
4903;SDS011;2467;48.142;11.616;2022-10-31T02:44:22;9.55;;;6.25;;
4903;SDS011;2467;48.142;11.616;2022-10-31T02:45:03;8.45;;;5.80;;
4903;SDS011;2467;48.142;11.616;2022-10-31T02:45:41;8.63;;;7.07;;
4903;SDS011;2467;48.142;11.616;2022-10-31T02:46:22;9.77;;;6.65;;
4903;SDS011;2467;48.142;11.616;2022-10-31T02:46:59;11.45;;;5.97;;
4903;SDS011;2467;48.142;11.616;2022-10-31T02:47:35;6.65;;;5.97;;
4903;SDS011;2467;48.142;11.616;2022-10-31T02:48:10;8.18;;;5.57;;
4903;SDS011;2467;48.142;11.616;2022-10-31T02:48:45;10.75;;;6.60;;
4903;SDS011;2467;48.142;11.616;2022-10-31T02:49:23;6.70;;;5.50;;
4903;SDS011;2467;48.142;11.616;2022-10-31T02:50:01;8.50;;;6.30;;
4903;SDS011;2467;48.142;11.616;2022-10-31T02:50:38;7.45;;;5.70;;
4903;SDS011;2467;48.142;11.616;2022-10-31T02:51:12;9.55;;;6.07;;
4903;SDS011;2467;48.142;11.616;2022-10-31T02:51:46;10.02;;;6.18;;
4903;SDS011;2467;48.142;11.616;2022-10-31T02:52:19;10.80;;;6.43;;
4903;SDS011;2467;48.142;11.616;2022-10-31T02:52:52;13.88;;;6.65;;
4903;SDS011;2467;48.142;11.616;2022-10-31T02:53:25;8.50;;;6.57;;
4903;SDS011;2467;48.142;11.616;2022-10-31T02:53:57;12.60;;;5.60;;
4903;SDS011;2467;48.142;11.616;2022-10-31T02:54:30;8.45;;;6.20;;
4903;SDS011;2467;48.142;11.616;2022-10-31T02:55:10;8.40;;;6.50;;
4903;SDS011;2467;48.142;11.616;2022-10-31T02:55:49;9.93;;;6.07;;
4903;SDS011;2467;48.142;11.616;2022-10-31T02:56:26;8.13;;;5.00;;
4903;SDS011;2467;48.142;11.616;2022-10-31T02:56:59;9.90;;;5.93;;
4903;SDS011;2467;48.142;11.616;2022-10-31T02:57:35;6.93;;;6.13;;
4903;SDS011;2467;48.142;11.616;2022-10-31T02:58:09;9.60;;;6.40;;
4903;SDS011;2467;48.142;11.616;2022-10-31T02:58:44;7.82;;;6.00;;
4903;SDS011;2467;48.142;11.616;2022-10-31T02:59:20;7.20;;;5.53;;
4903;SDS011;2467;48.142;11.616;2022-10-31T02:59:54;9.15;;;6.25;;
4903;SDS011;2467;48.142;11.616;2022-10-31T03:00:29;7.72;;;5.85;;
4903;SDS011;2467;48.142;11.616;2022-10-31T03:03:29;7.82;;;6.07;;
4903;SDS011;2467;48.142;11.616;2022-10-31T03:04:12;10.52;;;8.40;;
4903;SDS011;2467;48.142;11.616;2022-10-31T03:05:01;12.02;;;7.20;;
4903;SDS011;2467;48.142;11.616;2022-10-31T03:06:06;13.07;;;10.10;;
4903;SDS011;2467;48.142;11.616;2022-10-31T03:06:45;26.48;;;21.23;;
4903;SDS011;2467;48.142;11.616;2022-10-31T03:07:26;21.23;;;17.70;;
4903;SDS011;2467;48.142;11.616;2022-10-31T03:08:09;17.92;;;11.05;;
4903;SDS011;2467;48.142;11.616;2022-10-31T03:08:47;15.43;;;10.57;;
4903;SDS011;2467;48.142;11.616;2022-10-31T03:09:27;12.05;;;9.75;;
4903;SDS011;2467;48.142;11.616;2022-10-31T03:10:08;10.25;;;7.60;;
4903;SDS011;2467;48.142;11.616;2022-10-31T03:10:51;11.15;;;7.90;;
4903;SDS011;2467;48.142;11.616;2022-10-31T03:11:29;10.27;;;7.97;;
4903;SDS011;2467;48.142;11.616;2022-10-31T03:12:07;9.75;;;7.18;;
4903;SDS011;2467;48.142;11.616;2022-10-31T03:12:44;9.82;;;7.45;;
4903;SDS011;2467;48.142;11.616;2022-10-31T03:13:29;10.13;;;6.95;;
4903;SDS011;2467;48.142;11.616;2022-10-31T03:14:06;12.43;;;7.30;;
4903;SDS011;2467;48.142;11.616;2022-10-31T03:14:42;20.67;;;8.60;;
4903;SDS011;2467;48.142;11.616;2022-10-31T03:15:21;12.13;;;6.90;;
4903;SDS011;2467;48.142;11.616;2022-10-31T03:16:02;8.93;;;7.25;;
4903;SDS011;2467;48.142;11.616;2022-10-31T03:16:42;10.20;;;7.18;;
4903;SDS011;2467;48.142;11.616;2022-10-31T03:17:21;10.60;;;7.20;;
4903;SDS011;2467;48.142;11.616;2022-10-31T03:17:58;14.93;;;9.57;;
4903;SDS011;2467;48.142;11.616;2022-10-31T03:18:36;14.65;;;10.48;;
4903;SDS011;2467;48.142;11.616;2022-10-31T03:19:12;13.80;;;10.85;;
4903;SDS011;2467;48.142;11.616;2022-10-31T03:19:48;19.90;;;12.70;;
4903;SDS011;2467;48.142;11.616;2022-10-31T03:20:24;12.82;;;8.93;;
4903;SDS011;2467;48.142;11.616;2022-10-31T03:21:04;11.82;;;10.60;;
4903;SDS011;2467;48.142;11.616;2022-10-31T03:21:41;14.57;;;11.90;;
4903;SDS011;2467;48.142;11.616;2022-10-31T03:22:16;11.25;;;8.57;;
4903;SDS011;2467;48.142;11.616;2022-10-31T03:22:53;12.40;;;8.73;;
4903;SDS011;2467;48.142;11.616;2022-10-31T03:23:27;8.75;;;7.82;;
4903;SDS011;2467;48.142;11.616;2022-10-31T03:24:00;9.00;;;7.20;;
4903;SDS011;2467;48.142;11.616;2022-10-31T03:24:37;10.38;;;6.72;;
4903;SDS011;2467;48.142;11.616;2022-10-31T03:25:10;10.32;;;6.68;;
4903;SDS011;2467;48.142;11.616;2022-10-31T03:25:45;8.73;;;6.07;;
4903;SDS011;2467;48.142;11.616;2022-10-31T03:26:18;12.18;;;6.07;;
4903;SDS011;2467;48.142;11.616;2022-10-31T03:26:53;10.95;;;6.75;;
4903;SDS011;2467;48.142;11.616;2022-10-31T03:27:29;7.68;;;4.88;;
4903;SDS011;2467;48.142;11.616;2022-10-31T03:28:04;9.38;;;5.20;;
4903;SDS011;2467;48.142;11.616;2022-10-31T03:28:40;10.35;;;6.38;;
4903;SDS011;2467;48.142;11.616;2022-10-31T03:29:18;7.70;;;6.38;;
4903;SDS011;2467;48.142;11.616;2022-10-31T03:29:54;11.27;;;6.40;;
4903;SDS011;2467;48.142;11.616;2022-10-31T03:30:28;14.60;;;6.70;;
4903;SDS011;2467;48.142;11.616;2022-10-31T03:31:05;6.85;;;5.95;;
4903;SDS011;2467;48.142;11.616;2022-10-31T03:31:40;8.88;;;6.18;;
4903;SDS011;2467;48.142;11.616;2022-10-31T03:32:19;8.95;;;5.57;;
4903;SDS011;2467;48.142;11.616;2022-10-31T03:32:54;9.57;;;7.28;;
4903;SDS011;2467;48.142;11.616;2022-10-31T03:33:29;14.60;;;6.07;;
4903;SDS011;2467;48.142;11.616;2022-10-31T03:34:05;8.82;;;6.35;;
4903;SDS011;2467;48.142;11.616;2022-10-31T03:34:39;7.13;;;5.18;;
4903;SDS011;2467;48.142;11.616;2022-10-31T03:35:15;10.88;;;5.90;;
4903;SDS011;2467;48.142;11.616;2022-10-31T03:35:50;8.13;;;5.25;;
4903;SDS011;2467;48.142;11.616;2022-10-31T03:36:26;12.13;;;6.60;;
4903;SDS011;2467;48.142;11.616;2022-10-31T03:37:01;8.75;;;6.40;;